sensor_id;sensor_type;location;lat;lon;timestamp;P1;durP1;ratioP1;P2;durP2;ratioP2
23304;SDS011;11821;51.456;8.844;2023-12-20T00:01:08;1.88;;;1.55;;
23304;SDS011;11821;51.456;8.844;2023-12-20T00:03:34;5.30;;;2.13;;
23304;SDS011;11821;51.456;8.844;2023-12-20T00:06:01;1.83;;;1.50;;
23304;SDS011;11821;51.456;8.844;2023-12-20T00:08:28;1.88;;;1.48;;
23304;SDS011;11821;51.456;8.844;2023-12-20T00:10:54;2.50;;;1.70;;
23304;SDS011;11821;51.456;8.844;2023-12-20T00:13:21;2.60;;;2.03;;
23304;SDS011;11821;51.456;8.844;2023-12-20T00:15:47;1.67;;;1.40;;
23304;SDS011;11821;51.456;8.844;2023-12-20T00:18:14;2.13;;;1.63;;
23304;SDS011;11821;51.456;8.844;2023-12-20T00:20:41;3.75;;;2.47;;
23304;SDS011;11821;51.456;8.844;2023-12-20T00:23:07;2.13;;;1.40;;
23304;SDS011;11821;51.456;8.844;2023-12-20T00:25:34;2.92;;;2.05;;
23304;SDS011;11821;51.456;8.844;2023-12-20T00:28:01;3.33;;;2.28;;
23304;SDS011;11821;51.456;8.844;2023-12-20T00:30:28;2.10;;;1.58;;
23304;SDS011;11821;51.456;8.844;2023-12-20T00:32:55;2.47;;;1.63;;
23304;SDS011;11821;51.456;8.844;2023-12-20T00:35:22;2.25;;;1.48;;
23304;SDS011;11821;51.456;8.844;2023-12-20T00:37:48;2.40;;;1.55;;
23304;SDS011;11821;51.456;8.844;2023-12-20T00:40:15;2.50;;;1.67;;
23304;SDS011;11821;51.456;8.844;2023-12-20T00:42:41;2.40;;;1.77;;
23304;SDS011;11821;51.456;8.844;2023-12-20T00:45:08;2.80;;;2.08;;
23304;SDS011;11821;51.456;8.844;2023-12-20T00:47:35;2.85;;;2.10;;
23304;SDS011;11821;51.456;8.844;2023-12-20T00:50:01;2.38;;;1.70;;
23304;SDS011;11821;51.456;8.844;2023-12-20T00:52:29;3.53;;;2.22;;
23304;SDS011;11821;51.456;8.844;2023-12-20T00:54:55;3.47;;;1.83;;
23304;SDS011;11821;51.456;8.844;2023-12-20T00:57:22;2.63;;;1.80;;
23304;SDS011;11821;51.456;8.844;2023-12-20T00:59:49;2.08;;;1.80;;
23304;SDS011;11821;51.456;8.844;2023-12-20T01:02:15;3.70;;;2.38;;
23304;SDS011;11821;51.456;8.844;2023-12-20T01:04:42;3.17;;;2.50;;
23304;SDS011;11821;51.456;8.844;2023-12-20T01:07:09;3.90;;;2.20;;
23304;SDS011;11821;51.456;8.844;2023-12-20T01:09:36;4.43;;;2.30;;
23304;SDS011;11821;51.456;8.844;2023-12-20T01:12:02;2.40;;;1.40;;
23304;SDS011;11821;51.456;8.844;2023-12-20T01:14:29;2.40;;;1.40;;
23304;SDS011;11821;51.456;8.844;2023-12-20T01:16:56;5.32;;;1.50;;
23304;SDS011;11821;51.456;8.844;2023-12-20T01:19:22;2.88;;;2.03;;
23304;SDS011;11821;51.456;8.844;2023-12-20T01:21:49;3.33;;;2.45;;
23304;SDS011;11821;51.456;8.844;2023-12-20T01:24:16;2.08;;;1.65;;
23304;SDS011;11821;51.456;8.844;2023-12-20T01:26:42;3.85;;;2.42;;
23304;SDS011;11821;51.456;8.844;2023-12-20T01:29:09;3.50;;;2.33;;
23304;SDS011;11821;51.456;8.844;2023-12-20T01:31:35;4.43;;;2.58;;
23304;SDS011;11821;51.456;8.844;2023-12-20T01:34:02;4.95;;;3.42;;
23304;SDS011;11821;51.456;8.844;2023-12-20T01:36:29;6.18;;;3.28;;
23304;SDS011;11821;51.456;8.844;2023-12-20T01:38:55;4.65;;;3.72;;
23304;SDS011;11821;51.456;8.844;2023-12-20T01:41:22;7.65;;;3.92;;
23304;SDS011;11821;51.456;8.844;2023-12-20T01:43:49;6.45;;;4.22;;
23304;SDS011;11821;51.456;8.844;2023-12-20T01:46:15;6.72;;;4.07;;
23304;SDS011;11821;51.456;8.844;2023-12-20T01:48:42;6.28;;;4.05;;
23304;SDS011;11821;51.456;8.844;2023-12-20T01:51:09;7.57;;;4.50;;
23304;SDS011;11821;51.456;8.844;2023-12-20T01:53:35;5.80;;;4.53;;
23304;SDS011;11821;51.456;8.844;2023-12-20T01:56:02;4.10;;;3.53;;
23304;SDS011;11821;51.456;8.844;2023-12-20T01:58:29;7.18;;;4.45;;
23304;SDS011;11821;51.456;8.844;2023-12-20T02:00:56;9.00;;;5.07;;
23304;SDS011;11821;51.456;8.844;2023-12-20T02:03:23;5.22;;;3.67;;
23304;SDS011;11821;51.456;8.844;2023-12-20T02:05:50;8.80;;;3.97;;
23304;SDS011;11821;51.456;8.844;2023-12-20T02:08:17;7.65;;;4.15;;
23304;SDS011;11821;51.456;8.844;2023-12-20T02:10:44;6.90;;;4.30;;
23304;SDS011;11821;51.456;8.844;2023-12-20T02:13:11;7.90;;;3.90;;
23304;SDS011;11821;51.456;8.844;2023-12-20T02:15:37;9.32;;;3.45;;
23304;SDS011;11821;51.456;8.844;2023-12-20T02:18:04;6.32;;;3.60;;
23304;SDS011;11821;51.456;8.844;2023-12-20T02:20:31;7.45;;;3.53;;
23304;SDS011;11821;51.456;8.844;2023-12-20T02:22:57;6.32;;;3.35;;
23304;SDS011;11821;51.456;8.844;2023-12-20T02:25:24;11.93;;;3.95;;
23304;SDS011;11821;51.456;8.844;2023-12-20T02:27:50;8.55;;;3.17;;
23304;SDS011;11821;51.456;8.844;2023-12-20T02:30:18;9.18;;;3.05;;
23304;SDS011;11821;51.456;8.844;2023-12-20T02:32:44;6.22;;;3.67;;
23304;SDS011;11821;51.456;8.844;2023-12-20T02:35:11;6.30;;;3.60;;
23304;SDS011;11821;51.456;8.844;2023-12-20T02:37:37;10.50;;;3.50;;
23304;SDS011;11821;51.456;8.844;2023-12-20T02:40:04;4.72;;;2.25;;
23304;SDS011;11821;51.456;8.844;2023-12-20T02:42:31;9.70;;;3.55;;
23304;SDS011;11821;51.456;8.844;2023-12-20T02:44:57;8.52;;;3.67;;
23304;SDS011;11821;51.456;8.844;2023-12-20T02:47:24;12.55;;;3.45;;
23304;SDS011;11821;51.456;8.844;2023-12-20T02:49:51;8.88;;;4.40;;
23304;SDS011;11821;51.456;8.844;2023-12-20T02:52:18;7.60;;;4.10;;
23304;SDS011;11821;51.456;8.844;2023-12-20T02:54:45;9.05;;;4.68;;
23304;SDS011;11821;51.456;8.844;2023-12-20T02:57:11;7.55;;;3.72;;
23304;SDS011;11821;51.456;8.844;2023-12-20T02:59:38;11.93;;;4.18;;
23304;SDS011;11821;51.456;8.844;2023-12-20T03:02:05;11.30;;;4.05;;
23304;SDS011;11821;51.456;8.844;2023-12-20T03:04:31;12.50;;;4.63;;
23304;SDS011;11821;51.456;8.844;2023-12-20T03:06:58;10.80;;;4.90;;
23304;SDS011;11821;51.456;8.844;2023-12-20T03:09:25;7.68;;;4.70;;
23304;SDS011;11821;51.456;8.844;2023-12-20T03:11:51;14.13;;;4.43;;
23304;SDS011;11821;51.456;8.844;2023-12-20T03:14:18;6.57;;;3.85;;
23304;SDS011;11821;51.456;8.844;2023-12-20T03:16:50;9.80;;;4.25;;
23304;SDS011;11821;51.456;8.844;2023-12-20T03:19:17;8.80;;;5.00;;
23304;SDS011;11821;51.456;8.844;2023-12-20T03:21:45;8.80;;;3.80;;
23304;SDS011;11821;51.456;8.844;2023-12-20T03:24:11;11.27;;;3.92;;
23304;SDS011;11821;51.456;8.844;2023-12-20T03:26:38;5.32;;;3.72;;
23304;SDS011;11821;51.456;8.844;2023-12-20T03:29:05;7.90;;;3.72;;
23304;SDS011;11821;51.456;8.844;2023-12-20T03:31:31;7.13;;;4.78;;
23304;SDS011;11821;51.456;8.844;2023-12-20T03:33:58;6.38;;;3.88;;
23304;SDS011;11821;51.456;8.844;2023-12-20T03:36:24;9.38;;;4.35;;
23304;SDS011;11821;51.456;8.844;2023-12-20T03:38:51;8.05;;;3.67;;
23304;SDS011;11821;51.456;8.844;2023-12-20T03:41:18;9.63;;;5.28;;
23304;SDS011;11821;51.456;8.844;2023-12-20T03:43:44;7.70;;;4.45;;
23304;SDS011;11821;51.456;8.844;2023-12-20T03:46:11;8.63;;;4.15;;
23304;SDS011;11821;51.456;8.844;2023-12-20T03:48:37;7.38;;;3.90;;
23304;SDS011;11821;51.456;8.844;2023-12-20T03:51:04;5.85;;;3.90;;
23304;SDS011;11821;51.456;8.844;2023-12-20T03:53:31;3.92;;;3.25;;
23304;SDS011;11821;51.456;8.844;2023-12-20T03:55:57;6.93;;;3.00;;
23304;SDS011;11821;51.456;8.844;2023-12-20T03:58:24;9.13;;;3.70;;
23304;SDS011;11821;51.456;8.844;2023-12-20T04:00:51;8.18;;;3.42;;
23304;SDS011;11821;51.456;8.844;2023-12-20T04:03:17;7.90;;;3.47;;
23304;SDS011;11821;51.456;8.844;2023-12-20T04:05:44;11.52;;;3.97;;
23304;SDS011;11821;51.456;8.844;2023-12-20T04:08:11;12.90;;;3.97;;
23304;SDS011;11821;51.456;8.844;2023-12-20T04:10:38;7.63;;;2.92;;
23304;SDS011;11821;51.456;8.844;2023-12-20T04:13:04;7.28;;;3.28;;
23304;SDS011;11821;51.456;8.844;2023-12-20T04:15:31;7.70;;;2.70;;
23304;SDS011;11821;51.456;8.844;2023-12-20T04:17:57;9.27;;;3.30;;
23304;SDS011;11821;51.456;8.844;2023-12-20T04:20:24;13.43;;;2.85;;
23304;SDS011;11821;51.456;8.844;2023-12-20T04:22:50;9.80;;;3.00;;
23304;SDS011;11821;51.456;8.844;2023-12-20T04:25:17;7.97;;;2.90;;
23304;SDS011;11821;51.456;8.844;2023-12-20T04:27:44;6.57;;;2.30;;
23304;SDS011;11821;51.456;8.844;2023-12-20T04:30:11;9.25;;;1.60;;
23304;SDS011;11821;51.456;8.844;2023-12-20T04:32:38;10.30;;;2.38;;
23304;SDS011;11821;51.456;8.844;2023-12-20T04:35:04;7.28;;;2.15;;
23304;SDS011;11821;51.456;8.844;2023-12-20T04:37:31;8.55;;;2.40;;
23304;SDS011;11821;51.456;8.844;2023-12-20T04:39:58;6.15;;;2.83;;
23304;SDS011;11821;51.456;8.844;2023-12-20T04:42:24;9.40;;;2.35;;
23304;SDS011;11821;51.456;8.844;2023-12-20T04:44:51;8.73;;;2.55;;
23304;SDS011;11821;51.456;8.844;2023-12-20T04:47:18;7.50;;;3.60;;
23304;SDS011;11821;51.456;8.844;2023-12-20T04:49:44;9.88;;;2.53;;
23304;SDS011;11821;51.456;8.844;2023-12-20T04:52:11;8.48;;;3.13;;
23304;SDS011;11821;51.456;8.844;2023-12-20T04:54:37;5.95;;;3.63;;
23304;SDS011;11821;51.456;8.844;2023-12-20T04:57:04;11.15;;;3.38;;
23304;SDS011;11821;51.456;8.844;2023-12-20T04:59:31;12.02;;;2.95;;
23304;SDS011;11821;51.456;8.844;2023-12-20T05:01:57;9.68;;;3.42;;
23304;SDS011;11821;51.456;8.844;2023-12-20T05:04:24;9.73;;;3.33;;
23304;SDS011;11821;51.456;8.844;2023-12-20T05:06:51;10.10;;;3.90;;
23304;SDS011;11821;51.456;8.844;2023-12-20T05:09:17;10.02;;;3.90;;
23304;SDS011;11821;51.456;8.844;2023-12-20T05:11:44;9.05;;;3.40;;
23304;SDS011;11821;51.456;8.844;2023-12-20T05:14:11;8.15;;;2.67;;
23304;SDS011;11821;51.456;8.844;2023-12-20T05:16:37;10.07;;;2.40;;
23304;SDS011;11821;51.456;8.844;2023-12-20T05:19:04;10.00;;;2.97;;
23304;SDS011;11821;51.456;8.844;2023-12-20T05:21:32;6.25;;;3.50;;
23304;SDS011;11821;51.456;8.844;2023-12-20T05:24:01;5.07;;;2.10;;
23304;SDS011;11821;51.456;8.844;2023-12-20T05:26:28;15.48;;;3.15;;
23304;SDS011;11821;51.456;8.844;2023-12-20T05:28:56;13.32;;;2.95;;
23304;SDS011;11821;51.456;8.844;2023-12-20T05:31:22;8.52;;;3.58;;
23304;SDS011;11821;51.456;8.844;2023-12-20T05:33:49;11.90;;;3.33;;
23304;SDS011;11821;51.456;8.844;2023-12-20T05:36:15;6.63;;;2.13;;
23304;SDS011;11821;51.456;8.844;2023-12-20T05:38:42;7.03;;;3.05;;
23304;SDS011;11821;51.456;8.844;2023-12-20T05:41:09;14.02;;;3.58;;
23304;SDS011;11821;51.456;8.844;2023-12-20T05:43:35;12.50;;;2.60;;
23304;SDS011;11821;51.456;8.844;2023-12-20T05:46:02;11.52;;;2.85;;
23304;SDS011;11821;51.456;8.844;2023-12-20T05:48:30;14.10;;;3.15;;
23304;SDS011;11821;51.456;8.844;2023-12-20T05:50:57;10.82;;;1.95;;
23304;SDS011;11821;51.456;8.844;2023-12-20T05:53:23;9.40;;;2.38;;
23304;SDS011;11821;51.456;8.844;2023-12-20T05:55:50;7.75;;;3.13;;
23304;SDS011;11821;51.456;8.844;2023-12-20T05:58:17;10.13;;;2.55;;
23304;SDS011;11821;51.456;8.844;2023-12-20T06:00:43;12.60;;;3.20;;
23304;SDS011;11821;51.456;8.844;2023-12-20T06:03:10;6.03;;;1.90;;
23304;SDS011;11821;51.456;8.844;2023-12-20T06:05:36;6.43;;;3.05;;
23304;SDS011;11821;51.456;8.844;2023-12-20T06:08:03;16.92;;;2.90;;
23304;SDS011;11821;51.456;8.844;2023-12-20T06:10:30;10.77;;;2.72;;
23304;SDS011;11821;51.456;8.844;2023-12-20T06:12:56;12.10;;;4.50;;
23304;SDS011;11821;51.456;8.844;2023-12-20T06:15:24;9.30;;;2.65;;
23304;SDS011;11821;51.456;8.844;2023-12-20T06:17:51;8.32;;;3.00;;
23304;SDS011;11821;51.456;8.844;2023-12-20T06:20:17;11.70;;;4.05;;
23304;SDS011;11821;51.456;8.844;2023-12-20T06:22:44;14.68;;;3.20;;
23304;SDS011;11821;51.456;8.844;2023-12-20T06:25:11;9.32;;;3.70;;
23304;SDS011;11821;51.456;8.844;2023-12-20T06:27:37;17.70;;;2.97;;
23304;SDS011;11821;51.456;8.844;2023-12-20T06:30:04;11.25;;;3.30;;
23304;SDS011;11821;51.456;8.844;2023-12-20T06:32:31;15.02;;;3.88;;
23304;SDS011;11821;51.456;8.844;2023-12-20T06:34:57;12.00;;;3.65;;
23304;SDS011;11821;51.456;8.844;2023-12-20T06:37:24;14.75;;;3.92;;
23304;SDS011;11821;51.456;8.844;2023-12-20T06:39:50;15.68;;;4.20;;
23304;SDS011;11821;51.456;8.844;2023-12-20T06:42:20;12.20;;;4.75;;
23304;SDS011;11821;51.456;8.844;2023-12-20T06:44:47;11.80;;;3.70;;
23304;SDS011;11821;51.456;8.844;2023-12-20T06:47:14;15.27;;;3.75;;
23304;SDS011;11821;51.456;8.844;2023-12-20T06:49:41;13.68;;;3.65;;
23304;SDS011;11821;51.456;8.844;2023-12-20T06:52:08;12.30;;;4.07;;
23304;SDS011;11821;51.456;8.844;2023-12-20T06:54:34;11.15;;;4.53;;
23304;SDS011;11821;51.456;8.844;2023-12-20T06:57:01;8.73;;;3.70;;
23304;SDS011;11821;51.456;8.844;2023-12-20T06:59:29;12.00;;;4.45;;
23304;SDS011;11821;51.456;8.844;2023-12-20T07:01:56;10.40;;;4.55;;
23304;SDS011;11821;51.456;8.844;2023-12-20T07:04:22;10.90;;;3.95;;
23304;SDS011;11821;51.456;8.844;2023-12-20T07:06:49;14.82;;;4.30;;
23304;SDS011;11821;51.456;8.844;2023-12-20T07:09:22;17.08;;;4.25;;
23304;SDS011;11821;51.456;8.844;2023-12-20T07:11:49;15.25;;;4.65;;
23304;SDS011;11821;51.456;8.844;2023-12-20T07:14:16;12.93;;;4.90;;
23304;SDS011;11821;51.456;8.844;2023-12-20T07:16:42;13.93;;;4.60;;
23304;SDS011;11821;51.456;8.844;2023-12-20T07:19:09;21.60;;;4.35;;
23304;SDS011;11821;51.456;8.844;2023-12-20T07:21:36;18.45;;;4.22;;
23304;SDS011;11821;51.456;8.844;2023-12-20T07:24:02;15.07;;;3.17;;
23304;SDS011;11821;51.456;8.844;2023-12-20T07:26:29;13.27;;;3.80;;
23304;SDS011;11821;51.456;8.844;2023-12-20T07:28:55;10.07;;;2.65;;
23304;SDS011;11821;51.456;8.844;2023-12-20T07:31:24;16.88;;;3.95;;
23304;SDS011;11821;51.456;8.844;2023-12-20T07:33:50;13.93;;;3.20;;
23304;SDS011;11821;51.456;8.844;2023-12-20T07:36:17;16.67;;;3.80;;
23304;SDS011;11821;51.456;8.844;2023-12-20T07:38:44;10.57;;;3.67;;
23304;SDS011;11821;51.456;8.844;2023-12-20T07:41:10;8.60;;;3.28;;
23304;SDS011;11821;51.456;8.844;2023-12-20T07:43:37;13.30;;;3.70;;
23304;SDS011;11821;51.456;8.844;2023-12-20T07:46:07;17.35;;;3.22;;
23304;SDS011;11821;51.456;8.844;2023-12-20T07:48:37;9.20;;;3.22;;
23304;SDS011;11821;51.456;8.844;2023-12-20T07:51:04;13.10;;;4.10;;
23304;SDS011;11821;51.456;8.844;2023-12-20T07:53:35;13.75;;;3.85;;
23304;SDS011;11821;51.456;8.844;2023-12-20T07:56:12;13.38;;;3.67;;
23304;SDS011;11821;51.456;8.844;2023-12-20T07:58:39;11.27;;;3.85;;
23304;SDS011;11821;51.456;8.844;2023-12-20T08:01:06;14.93;;;3.45;;
23304;SDS011;11821;51.456;8.844;2023-12-20T08:03:32;9.18;;;3.17;;
23304;SDS011;11821;51.456;8.844;2023-12-20T08:05:59;14.57;;;3.17;;
23304;SDS011;11821;51.456;8.844;2023-12-20T08:08:26;11.23;;;4.55;;
23304;SDS011;11821;51.456;8.844;2023-12-20T08:10:52;15.70;;;4.32;;
23304;SDS011;11821;51.456;8.844;2023-12-20T08:13:19;12.98;;;3.92;;
23304;SDS011;11821;51.456;8.844;2023-12-20T08:15:50;10.00;;;3.53;;
23304;SDS011;11821;51.456;8.844;2023-12-20T08:18:17;11.35;;;3.28;;
23304;SDS011;11821;51.456;8.844;2023-12-20T08:20:43;9.73;;;3.53;;
23304;SDS011;11821;51.456;8.844;2023-12-20T08:23:10;9.98;;;3.45;;
23304;SDS011;11821;51.456;8.844;2023-12-20T08:25:36;10.68;;;3.40;;
23304;SDS011;11821;51.456;8.844;2023-12-20T08:28:03;13.27;;;4.30;;
23304;SDS011;11821;51.456;8.844;2023-12-20T08:30:30;12.13;;;3.78;;
23304;SDS011;11821;51.456;8.844;2023-12-20T08:32:59;14.32;;;3.08;;
23304;SDS011;11821;51.456;8.844;2023-12-20T08:35:26;16.05;;;4.50;;
23304;SDS011;11821;51.456;8.844;2023-12-20T08:37:53;16.02;;;3.83;;
23304;SDS011;11821;51.456;8.844;2023-12-20T08:40:19;9.50;;;3.45;;
23304;SDS011;11821;51.456;8.844;2023-12-20T08:42:46;9.68;;;4.07;;
23304;SDS011;11821;51.456;8.844;2023-12-20T08:45:13;15.73;;;3.97;;
23304;SDS011;11821;51.456;8.844;2023-12-20T08:47:39;14.18;;;3.60;;
23304;SDS011;11821;51.456;8.844;2023-12-20T08:50:06;12.63;;;2.97;;
23304;SDS011;11821;51.456;8.844;2023-12-20T08:52:33;14.25;;;3.50;;
23304;SDS011;11821;51.456;8.844;2023-12-20T08:55:00;15.60;;;4.00;;
23304;SDS011;11821;51.456;8.844;2023-12-20T08:57:26;12.77;;;3.85;;
23304;SDS011;11821;51.456;8.844;2023-12-20T08:59:53;17.38;;;3.78;;
23304;SDS011;11821;51.456;8.844;2023-12-20T09:02:20;10.63;;;4.38;;
23304;SDS011;11821;51.456;8.844;2023-12-20T09:04:46;8.13;;;3.33;;
23304;SDS011;11821;51.456;8.844;2023-12-20T09:07:23;13.32;;;3.70;;
23304;SDS011;11821;51.456;8.844;2023-12-20T09:09:50;14.55;;;3.67;;
23304;SDS011;11821;51.456;8.844;2023-12-20T09:12:19;7.55;;;2.70;;
23304;SDS011;11821;51.456;8.844;2023-12-20T09:14:46;15.57;;;4.50;;
23304;SDS011;11821;51.456;8.844;2023-12-20T09:17:13;7.63;;;3.40;;
23304;SDS011;11821;51.456;8.844;2023-12-20T09:19:40;14.20;;;3.63;;
23304;SDS011;11821;51.456;8.844;2023-12-20T09:22:07;14.43;;;3.97;;
23304;SDS011;11821;51.456;8.844;2023-12-20T09:24:33;11.90;;;3.35;;
23304;SDS011;11821;51.456;8.844;2023-12-20T09:27:00;13.77;;;3.58;;
23304;SDS011;11821;51.456;8.844;2023-12-20T09:29:26;7.97;;;2.50;;
23304;SDS011;11821;51.456;8.844;2023-12-20T09:31:53;7.85;;;3.55;;
23304;SDS011;11821;51.456;8.844;2023-12-20T09:34:20;10.15;;;2.97;;
23304;SDS011;11821;51.456;8.844;2023-12-20T09:36:47;14.43;;;3.35;;
23304;SDS011;11821;51.456;8.844;2023-12-20T09:39:14;9.55;;;3.42;;
23304;SDS011;11821;51.456;8.844;2023-12-20T09:41:44;14.75;;;4.13;;
23304;SDS011;11821;51.456;8.844;2023-12-20T09:44:13;6.47;;;3.17;;
23304;SDS011;11821;51.456;8.844;2023-12-20T09:46:42;20.80;;;4.32;;
23304;SDS011;11821;51.456;8.844;2023-12-20T09:49:10;13.07;;;4.07;;
23304;SDS011;11821;51.456;8.844;2023-12-20T09:51:37;14.60;;;3.55;;
23304;SDS011;11821;51.456;8.844;2023-12-20T09:54:04;11.55;;;2.97;;
23304;SDS011;11821;51.456;8.844;2023-12-20T09:56:31;10.02;;;3.85;;
23304;SDS011;11821;51.456;8.844;2023-12-20T09:58:57;16.10;;;3.70;;
23304;SDS011;11821;51.456;8.844;2023-12-20T10:01:24;8.73;;;3.75;;
23304;SDS011;11821;51.456;8.844;2023-12-20T10:03:51;12.77;;;4.40;;
23304;SDS011;11821;51.456;8.844;2023-12-20T10:06:20;12.43;;;4.07;;
23304;SDS011;11821;51.456;8.844;2023-12-20T10:08:47;13.50;;;4.20;;
23304;SDS011;11821;51.456;8.844;2023-12-20T10:11:14;11.07;;;4.10;;
23304;SDS011;11821;51.456;8.844;2023-12-20T10:13:41;9.82;;;3.25;;
23304;SDS011;11821;51.456;8.844;2023-12-20T10:16:07;11.50;;;4.28;;
23304;SDS011;11821;51.456;8.844;2023-12-20T10:18:34;10.45;;;3.78;;
23304;SDS011;11821;51.456;8.844;2023-12-20T10:21:01;16.65;;;3.90;;
23304;SDS011;11821;51.456;8.844;2023-12-20T10:23:29;10.85;;;2.95;;
23304;SDS011;11821;51.456;8.844;2023-12-20T10:25:57;9.75;;;3.47;;
23304;SDS011;11821;51.456;8.844;2023-12-20T10:28:23;7.93;;;4.22;;
23304;SDS011;11821;51.456;8.844;2023-12-20T10:30:53;9.52;;;3.00;;
23304;SDS011;11821;51.456;8.844;2023-12-20T10:33:30;15.80;;;3.10;;
23304;SDS011;11821;51.456;8.844;2023-12-20T10:36:00;14.05;;;4.88;;
23304;SDS011;11821;51.456;8.844;2023-12-20T10:38:28;15.45;;;3.95;;
23304;SDS011;11821;51.456;8.844;2023-12-20T10:40:56;8.93;;;3.50;;
23304;SDS011;11821;51.456;8.844;2023-12-20T10:43:24;8.50;;;3.60;;
23304;SDS011;11821;51.456;8.844;2023-12-20T10:45:52;7.50;;;3.63;;
23304;SDS011;11821;51.456;8.844;2023-12-20T10:48:19;12.55;;;3.70;;
23304;SDS011;11821;51.456;8.844;2023-12-20T10:50:47;7.45;;;3.95;;
23304;SDS011;11821;51.456;8.844;2023-12-20T10:53:15;11.80;;;3.85;;
23304;SDS011;11821;51.456;8.844;2023-12-20T10:55:42;10.15;;;3.38;;
23304;SDS011;11821;51.456;8.844;2023-12-20T10:58:09;8.93;;;3.55;;
23304;SDS011;11821;51.456;8.844;2023-12-20T11:00:39;12.85;;;3.63;;
23304;SDS011;11821;51.456;8.844;2023-12-20T11:03:09;4.53;;;2.88;;
23304;SDS011;11821;51.456;8.844;2023-12-20T11:05:42;11.32;;;3.90;;
23304;SDS011;11821;51.456;8.844;2023-12-20T11:08:17;6.90;;;3.65;;
23304;SDS011;11821;51.456;8.844;2023-12-20T11:10:53;7.50;;;3.83;;
23304;SDS011;11821;51.456;8.844;2023-12-20T11:13:23;7.22;;;3.30;;
23304;SDS011;11821;51.456;8.844;2023-12-20T11:15:53;8.18;;;3.33;;
23304;SDS011;11821;51.456;8.844;2023-12-20T11:18:19;7.15;;;3.90;;
23304;SDS011;11821;51.456;8.844;2023-12-20T11:20:46;16.50;;;4.10;;
23304;SDS011;11821;51.456;8.844;2023-12-20T11:23:12;11.40;;;3.03;;
23304;SDS011;11821;51.456;8.844;2023-12-20T11:25:46;10.90;;;4.18;;
23304;SDS011;11821;51.456;8.844;2023-12-20T11:28:14;13.45;;;3.80;;
23304;SDS011;11821;51.456;8.844;2023-12-20T11:31:02;8.65;;;4.38;;
23304;SDS011;11821;51.456;8.844;2023-12-20T11:35:57;6.68;;;2.08;;
23304;SDS011;11821;51.456;8.844;2023-12-20T11:38:25;8.88;;;3.25;;
23304;SDS011;11821;51.456;8.844;2023-12-20T11:40:53;12.80;;;4.88;;
23304;SDS011;11821;51.456;8.844;2023-12-20T11:43:37;14.73;;;3.42;;
23304;SDS011;11821;51.456;8.844;2023-12-20T11:46:08;9.98;;;3.35;;
23304;SDS011;11821;51.456;8.844;2023-12-20T11:48:36;11.30;;;3.58;;
23304;SDS011;11821;51.456;8.844;2023-12-20T11:51:13;8.38;;;2.65;;
23304;SDS011;11821;51.456;8.844;2023-12-20T11:53:40;11.07;;;3.40;;
23304;SDS011;11821;51.456;8.844;2023-12-20T11:56:10;11.80;;;3.47;;
23304;SDS011;11821;51.456;8.844;2023-12-20T11:58:37;7.70;;;3.22;;
23304;SDS011;11821;51.456;8.844;2023-12-20T12:01:04;9.32;;;3.20;;
23304;SDS011;11821;51.456;8.844;2023-12-20T12:03:33;13.93;;;4.90;;
23304;SDS011;11821;51.456;8.844;2023-12-20T12:06:00;11.27;;;3.63;;
23304;SDS011;11821;51.456;8.844;2023-12-20T12:08:27;11.27;;;3.13;;
23304;SDS011;11821;51.456;8.844;2023-12-20T12:10:54;9.77;;;4.10;;
23304;SDS011;11821;51.456;8.844;2023-12-20T12:13:21;10.00;;;3.28;;
23304;SDS011;11821;51.456;8.844;2023-12-20T12:15:48;12.00;;;3.38;;
23304;SDS011;11821;51.456;8.844;2023-12-20T12:18:16;13.60;;;3.95;;
23304;SDS011;11821;51.456;8.844;2023-12-20T12:20:42;7.97;;;3.67;;
23304;SDS011;11821;51.456;8.844;2023-12-20T12:23:09;12.13;;;4.07;;
23304;SDS011;11821;51.456;8.844;2023-12-20T12:25:36;9.20;;;4.38;;
23304;SDS011;11821;51.456;8.844;2023-12-20T12:28:03;8.43;;;3.70;;
23304;SDS011;11821;51.456;8.844;2023-12-20T12:30:29;9.25;;;3.22;;
23304;SDS011;11821;51.456;8.844;2023-12-20T12:32:56;6.63;;;2.30;;
23304;SDS011;11821;51.456;8.844;2023-12-20T12:35:23;9.52;;;3.78;;
23304;SDS011;11821;51.456;8.844;2023-12-20T12:37:50;12.13;;;4.57;;
23304;SDS011;11821;51.456;8.844;2023-12-20T12:40:17;17.23;;;4.05;;
23304;SDS011;11821;51.456;8.844;2023-12-20T12:42:45;11.63;;;4.18;;
23304;SDS011;11821;51.456;8.844;2023-12-20T12:45:12;6.25;;;3.28;;
23304;SDS011;11821;51.456;8.844;2023-12-20T12:47:39;11.75;;;3.97;;
23304;SDS011;11821;51.456;8.844;2023-12-20T12:50:06;7.63;;;3.83;;
23304;SDS011;11821;51.456;8.844;2023-12-20T12:52:33;12.32;;;4.55;;
23304;SDS011;11821;51.456;8.844;2023-12-20T12:55:00;10.57;;;3.88;;
23304;SDS011;11821;51.456;8.844;2023-12-20T12:57:27;11.77;;;4.32;;
23304;SDS011;11821;51.456;8.844;2023-12-20T12:59:53;8.13;;;4.32;;
23304;SDS011;11821;51.456;8.844;2023-12-20T13:02:20;9.73;;;4.05;;
23304;SDS011;11821;51.456;8.844;2023-12-20T13:04:47;10.77;;;3.33;;
23304;SDS011;11821;51.456;8.844;2023-12-20T13:07:13;16.33;;;3.83;;
23304;SDS011;11821;51.456;8.844;2023-12-20T13:09:40;10.77;;;5.07;;
23304;SDS011;11821;51.456;8.844;2023-12-20T13:12:07;10.30;;;3.78;;
23304;SDS011;11821;51.456;8.844;2023-12-20T13:14:34;5.47;;;3.15;;
23304;SDS011;11821;51.456;8.844;2023-12-20T13:17:04;8.18;;;3.58;;
23304;SDS011;11821;51.456;8.844;2023-12-20T13:19:31;9.27;;;3.58;;
23304;SDS011;11821;51.456;8.844;2023-12-20T13:21:58;8.88;;;4.60;;
23304;SDS011;11821;51.456;8.844;2023-12-20T13:24:24;8.52;;;3.28;;
23304;SDS011;11821;51.456;8.844;2023-12-20T13:26:51;6.82;;;3.05;;
23304;SDS011;11821;51.456;8.844;2023-12-20T13:29:18;6.07;;;2.92;;
23304;SDS011;11821;51.456;8.844;2023-12-20T13:31:44;7.03;;;3.15;;
23304;SDS011;11821;51.456;8.844;2023-12-20T13:34:11;6.95;;;2.65;;
23304;SDS011;11821;51.456;8.844;2023-12-20T13:36:38;8.00;;;2.90;;
23304;SDS011;11821;51.456;8.844;2023-12-20T13:39:04;7.95;;;3.63;;
23304;SDS011;11821;51.456;8.844;2023-12-20T13:41:32;8.25;;;3.00;;
23304;SDS011;11821;51.456;8.844;2023-12-20T13:43:59;10.30;;;3.63;;
23304;SDS011;11821;51.456;8.844;2023-12-20T13:46:27;10.18;;;3.40;;
23304;SDS011;11821;51.456;8.844;2023-12-20T13:48:53;3.92;;;1.80;;
23304;SDS011;11821;51.456;8.844;2023-12-20T13:51:20;8.10;;;3.20;;
23304;SDS011;11821;51.456;8.844;2023-12-20T13:53:46;8.57;;;2.97;;
23304;SDS011;11821;51.456;8.844;2023-12-20T13:56:14;11.45;;;3.42;;
23304;SDS011;11821;51.456;8.844;2023-12-20T13:58:40;3.90;;;2.53;;
23304;SDS011;11821;51.456;8.844;2023-12-20T14:01:10;5.18;;;2.97;;
23304;SDS011;11821;51.456;8.844;2023-12-20T14:03:37;7.90;;;3.00;;
23304;SDS011;11821;51.456;8.844;2023-12-20T14:06:04;5.25;;;2.88;;
23304;SDS011;11821;51.456;8.844;2023-12-20T14:08:30;9.38;;;3.15;;
23304;SDS011;11821;51.456;8.844;2023-12-20T14:10:57;7.20;;;2.53;;
23304;SDS011;11821;51.456;8.844;2023-12-20T14:13:23;10.52;;;3.28;;
23304;SDS011;11821;51.456;8.844;2023-12-20T14:15:50;10.18;;;3.20;;
23304;SDS011;11821;51.456;8.844;2023-12-20T14:18:17;12.32;;;3.40;;
23304;SDS011;11821;51.456;8.844;2023-12-20T14:20:43;7.40;;;3.53;;
23304;SDS011;11821;51.456;8.844;2023-12-20T14:23:12;6.57;;;2.50;;
23304;SDS011;11821;51.456;8.844;2023-12-20T14:25:42;6.57;;;3.50;;
23304;SDS011;11821;51.456;8.844;2023-12-20T14:28:08;6.43;;;2.58;;
23304;SDS011;11821;51.456;8.844;2023-12-20T14:30:35;7.28;;;3.35;;
23304;SDS011;11821;51.456;8.844;2023-12-20T14:33:03;7.18;;;2.50;;
23304;SDS011;11821;51.456;8.844;2023-12-20T14:35:30;7.45;;;2.58;;
23304;SDS011;11821;51.456;8.844;2023-12-20T14:37:58;11.40;;;4.07;;
23304;SDS011;11821;51.456;8.844;2023-12-20T14:40:25;9.48;;;4.20;;
23304;SDS011;11821;51.456;8.844;2023-12-20T14:42:51;7.68;;;2.97;;
23304;SDS011;11821;51.456;8.844;2023-12-20T14:45:18;10.98;;;3.97;;